^^
Datos históricos de la estación: Murcia-Puente Tocinos
Diario Informe para Mayo 17, 2019 Unidades:  Métrico    Inglés   Ambas
Diario Semanal Mensual Anual Configurable
  Máximo: Mínimo: Media:
Temperatura: 25.0 °C 17.2 °C 21.2 °C
Punto de rocio: 14.7 °C 0.9 °C 6.8 °C
Humedad: 84% 22% 44%
Velocidad viento: 26.2km/h 0.0km/h 12.5km/h
Racha viento: 47.8km/h - -
Viento- - West
Presión: 1008.0 hPa 1001.2 hPa -
Precipitación: 0.0 mm    
Historical Graphs
 
 
Tabla de datos para Mayo 17, 2019
Hora Temperatura Punto de rocio Presión Viento Velocidad viento Racha viento Humedad Intensidad lluvia(por hora) Nubes
00:04 18.0 °C 14.3 °C 1004.1 hPa NE 6.9 km/h 7.4 km/h 79% 0.0 mm CLR
00:09 17.9 °C 14.2 °C 1004.1 hPa NE 4.7 km/h 7.4 km/h 79% 0.0 mm CLR
00:15 17.9 °C 14.4 °C 1004.1 hPa NNE 3.2 km/h 8.0 km/h 80% 0.0 mm CLR
00:19 17.8 °C 14.5 °C 1004.0 hPa NNE 4.7 km/h 5.6 km/h 81% 0.0 mm CLR
00:24 17.8 °C 14.5 °C 1004.0 hPa NNE 4.7 km/h 5.6 km/h 81% 0.0 mm CLR
00:29 17.7 °C 14.4 °C 1004.0 hPa NNE 2.3 km/h 6.4 km/h 81% 0.0 mm CLR
00:34 17.7 °C 14.6 °C 1003.8 hPa NNE 2.3 km/h 9.3 km/h 82% 0.0 mm CLR
00:39 17.6 °C 14.5 °C 1003.8 hPa NE 3.9 km/h   82% 0.0 mm CLR
00:44 17.6 °C 14.5 °C 1003.8 hPa NNW 3.9 km/h 3.7 km/h 82% 0.0 mm CLR
00:49 17.6 °C 14.5 °C 1003.6 hPa NNW 2.3 km/h 5.6 km/h 82% 0.0 mm CLR
00:54 17.6 °C 14.5 °C 1003.6 hPa NNW 2.3 km/h 6.9 km/h 82% 0.0 mm CLR
00:59 17.5 °C 14.6 °C 1003.6 hPa NNW 4.7 km/h 7.4 km/h 83% 0.0 mm CLR
01:04 17.5 °C 14.6 °C 1003.5 hPa NNW 4.7 km/h 7.4 km/h 83% 0.0 mm CLR
01:09 17.4 °C 14.5 °C 1003.5 hPa NW 3.9 km/h 7.4 km/h 83% 0.0 mm CLR
01:14 17.4 °C 14.7 °C 1003.5 hPa NW 3.9 km/h 5.6 km/h 84% 0.0 mm CLR
01:19 17.4 °C 14.5 °C 1003.5 hPa NW 3.2 km/h 5.6 km/h 83% 0.0 mm CLR
01:24 17.4 °C 14.5 °C 1003.5 hPa NW 3.2 km/h 4.7 km/h 83% 0.0 mm CLR
01:29 17.3 °C 14.2 °C 1003.5 hPa NW 2.9 km/h 6.9 km/h 82% 0.0 mm CLR
01:34 17.3 °C 14.2 °C 1003.5 hPa NW 2.9 km/h 5.8 km/h 82% 0.0 mm CLR
01:39 17.3 °C 14.2 °C 1003.5 hPa NNW 4.7 km/h 5.6 km/h 82% 0.0 mm CLR
01:44 17.3 °C 14.2 °C 1003.5 hPa NNW 4.7 km/h 6.9 km/h 82% 0.0 mm CLR
01:49 17.3 °C 14.2 °C 1003.3 hPa NW 3.2 km/h 7.4 km/h 82% 0.0 mm CLR
01:54 17.2 °C 14.3 °C 1003.3 hPa NW 3.2 km/h 5.6 km/h 83% 0.0 mm CLR
01:59 17.2 °C 14.3 °C 1003.3 hPa NW 3.2 km/h 5.6 km/h 83% 0.0 mm CLR
02:04 17.2 °C 14.3 °C 1003.0 hPa WNW 3.2 km/h 7.4 km/h 83% 0.0 mm CLR
02:09 17.2 °C 14.3 °C 1003.0 hPa NW 3.2 km/h 5.6 km/h 83% 0.0 mm CLR
02:14 17.2 °C 14.3 °C 1003.0 hPa NNW 3.2 km/h 7.4 km/h 83% 0.0 mm CLR
02:19 17.2 °C 14.3 °C 1002.9 hPa NW 3.2 km/h 4.7 km/h 83% 0.0 mm CLR
02:24 17.2 °C 14.3 °C 1002.9 hPa NW 3.2 km/h 3.7 km/h 83% 0.0 mm CLR
02:29 17.2 °C 14.3 °C 1002.9 hPa West 3.2 km/h 3.7 km/h 83% 0.0 mm CLR
02:34 17.2 °C 14.3 °C 1002.5 hPa East 3.2 km/h 1.9 km/h 83% 0.0 mm CLR
02:39 17.2 °C 14.3 °C 1002.5 hPa ESE 3.2 km/h 6.9 km/h 83% 0.0 mm CLR
02:44 17.2 °C 14.3 °C 1002.5 hPa ESE 3.2 km/h 7.4 km/h 83% 0.0 mm CLR
02:49 17.3 °C 14.4 °C 1002.2 hPa SE 3.2 km/h 5.6 km/h 83% 0.0 mm CLR
02:54 17.3 °C 14.4 °C 1002.2 hPa SE 5.0 km/h   83% 0.0 mm CLR
02:59 17.4 °C 14.5 °C 1002.2 hPa Calm     83% 0.0 mm CLR
03:04 17.3 °C 14.2 °C 1002.0 hPa Calm   5.8 km/h 82% 0.0 mm CLR
03:09 17.3 °C 14.4 °C 1002.0 hPa WNW 2.3 km/h 5.8 km/h 83% 0.0 mm CLR
03:14 17.3 °C 14.4 °C 1002.0 hPa WNW 2.3 km/h 3.7 km/h 83% 0.0 mm CLR
03:19 17.3 °C 14.4 °C 1001.9 hPa WNW 2.9 km/h 3.7 km/h 83% 0.0 mm CLR
03:24 17.3 °C 14.4 °C 1001.9 hPa WNW 2.9 km/h 6.4 km/h 83% 0.0 mm CLR
03:29 17.3 °C 14.4 °C 1001.9 hPa Calm     83% 0.0 mm CLR
03:34 17.3 °C 14.4 °C 1001.8 hPa Calm     83% 0.0 mm CLR
03:39 17.3 °C 14.4 °C 1001.8 hPa Calm   5.6 km/h 83% 0.0 mm CLR
03:44 17.3 °C 14.2 °C 1001.8 hPa Calm   7.4 km/h 82% 0.0 mm CLR
03:49 17.3 °C 14.2 °C 1001.8 hPa WSW 4.7 km/h 7.6 km/h 82% 0.0 mm CLR
03:54 17.4 °C 14.1 °C 1001.8 hPa WSW 4.7 km/h 11.1 km/h 81% 0.0 mm CLR
03:59 17.3 °C 14.0 °C 1001.8 hPa West 6.9 km/h 18.5 km/h 81% 0.0 mm CLR
04:04 17.3 °C 14.0 °C 1002.0 hPa SSW 6.9 km/h 8.7 km/h 81% 0.0 mm CLR
04:09 17.3 °C 14.0 °C 1002.0 hPa SSW 8.7 km/h 11.9 km/h 81% 0.0 mm CLR
04:14 17.4 °C 14.1 °C 1002.0 hPa West 8.7 km/h 11.1 km/h 81% 0.0 mm CLR
04:19 17.4 °C 14.1 °C 1001.7 hPa SW 8.7 km/h 10.0 km/h 81% 0.0 mm CLR
04:24 17.4 °C 14.1 °C 1001.7 hPa South 8.4 km/h 10.0 km/h 81% 0.0 mm CLR
04:29 17.4 °C 14.1 °C 1001.7 hPa South 6.9 km/h 13.0 km/h 81% 0.0 mm CLR
04:34 17.4 °C 14.1 °C 1001.5 hPa South 6.9 km/h 9.3 km/h 81% 0.0 mm CLR
04:39 17.4 °C 14.1 °C 1001.5 hPa SSW 7.6 km/h 11.1 km/h 81% 0.0 mm CLR
04:44 17.4 °C 14.1 °C 1001.5 hPa SSE 7.6 km/h 13.0 km/h 81% 0.0 mm CLR
04:49 17.4 °C 14.1 °C 1001.2 hPa SSW 8.4 km/h 9.3 km/h 81% 0.0 mm CLR
04:54 17.4 °C 14.1 °C 1001.2 hPa WNW 8.4 km/h 7.4 km/h 81% 0.0 mm CLR
04:59 17.4 °C 14.1 °C 1001.2 hPa West 5.8 km/h 11.1 km/h 81% 0.0 mm CLR
05:04 17.4 °C 14.1 °C 1001.2 hPa WSW 5.8 km/h 7.4 km/h 81% 0.0 mm CLR
05:09 17.4 °C 14.1 °C 1001.2 hPa SSW 6.9 km/h 11.1 km/h 81% 0.0 mm CLR
05:14 17.4 °C 14.1 °C 1001.2 hPa SSW 6.9 km/h 9.3 km/h 81% 0.0 mm CLR
05:19 17.4 °C 13.9 °C 1001.5 hPa South 6.9 km/h 13.0 km/h 80% 0.0 mm CLR
05:24 17.4 °C 14.1 °C 1001.5 hPa WSW 6.9 km/h 10.0 km/h 81% 0.0 mm CLR
05:29 17.4 °C 14.1 °C 1001.5 hPa WSW 6.9 km/h 9.3 km/h 81% 0.0 mm CLR
05:34 17.4 °C 13.9 °C 1001.8 hPa West 6.9 km/h 11.1 km/h 80% 0.0 mm CLR
05:39 17.5 °C 13.8 °C 1001.8 hPa West 6.9 km/h 13.7 km/h 79% 0.0 mm CLR
05:44 17.5 °C 13.8 °C 1001.8 hPa West 6.9 km/h 14.8 km/h 79% 0.0 mm CLR
05:49 17.7 °C 13.6 °C 1001.9 hPa WSW 6.9 km/h 13.7 km/h 77% 0.0 mm CLR
05:54 18.3 °C 12.7 °C 1001.9 hPa West 6.9 km/h 13.0 km/h 70% 0.0 mm CLR
05:59 18.7 °C 12.2 °C 1001.9 hPa WNW 13.0 km/h 22.5 km/h 66% 0.0 mm CLR
06:04 18.7 °C 12.0 °C 1002.0 hPa West 13.0 km/h 22.2 km/h 65% 0.0 mm CLR
06:09 18.7 °C 11.5 °C 1002.0 hPa WSW 13.0 km/h 27.8 km/h 63% 0.0 mm CLR
06:14 18.8 °C 11.1 °C 1002.0 hPa West 13.0 km/h 27.8 km/h 61% 0.0 mm CLR
06:19 18.8 °C 10.9 °C 1002.2 hPa WNW 12.2 km/h 20.4 km/h 60% 0.0 mm CLR
06:24 18.9 °C 10.7 °C 1002.2 hPa WSW 12.2 km/h 18.5 km/h 59% 0.0 mm CLR
06:29 18.8 °C 10.9 °C 1002.2 hPa WSW 11.9 km/h 16.4 km/h 60% 0.0 mm CLR
06:34 18.7 °C 10.8 °C 1002.5 hPa WNW 11.9 km/h 18.5 km/h 60% 0.0 mm CLR
06:39 18.6 °C 10.2 °C 1002.5 hPa WNW 8.7 km/h 22.2 km/h 58% 0.0 mm CLR
06:44 18.7 °C 9.2 °C 1002.5 hPa WNW 8.7 km/h 18.0 km/h 54% 0.0 mm CLR
06:49 18.9 °C 8.2 °C 1002.6 hPa West 11.9 km/h 25.9 km/h 50% 0.0 mm CLR
06:54 19.2 °C 8.5 °C 1002.6 hPa West 11.9 km/h 27.8 km/h 50% 0.0 mm CLR
06:59 19.2 °C 8.2 °C 1002.6 hPa West 16.1 km/h 18.5 km/h 49% 0.0 mm CLR
07:04 19.1 °C 7.5 °C 1002.9 hPa WNW 16.1 km/h 13.0 km/h 47% 0.0 mm CLR
07:09 19.1 °C 7.2 °C 1002.9 hPa NW 13.0 km/h 25.9 km/h 46% 0.0 mm CLR
07:14 19.0 °C 6.8 °C 1002.9 hPa West 13.0 km/h 29.6 km/h 45% 0.0 mm CLR
07:19 18.9 °C 6.7 °C 1003.1 hPa WNW 17.2 km/h 24.1 km/h 45% 0.0 mm CLR
07:24 18.9 °C 6.7 °C 1003.1 hPa WNW 17.2 km/h 18.5 km/h 45% 0.0 mm CLR
07:29 18.9 °C 6.7 °C 1003.1 hPa WNW 16.1 km/h 18.5 km/h 45% 0.0 mm CLR
07:34 18.9 °C 6.7 °C 1003.5 hPa WNW 16.1 km/h 14.8 km/h 45% 0.0 mm CLR
07:39 18.9 °C 6.7 °C 1003.5 hPa West 11.9 km/h 14.8 km/h 45% 0.0 mm CLR
07:44 18.9 °C 6.7 °C 1003.5 hPa West 11.9 km/h 14.8 km/h 45% 0.0 mm CLR
07:49 19.1 °C 6.6 °C 1003.7 hPa WSW 11.1 km/h 20.4 km/h 44% 0.0 mm CLR
07:54 19.1 °C 6.6 °C 1003.7 hPa West 11.1 km/h 18.5 km/h 44% 0.0 mm CLR
07:59 19.2 °C 6.3 °C 1003.7 hPa West 11.9 km/h 19.0 km/h 43% 0.0 mm CLR
08:04 19.3 °C 6.1 °C 1004.0 hPa NW 11.9 km/h 33.3 km/h 42% 0.0 mm CLR
08:09 19.4 °C 5.8 °C 1004.0 hPa West 20.1 km/h 33.3 km/h 41% 0.0 mm CLR
08:14 19.6 °C 5.6 °C 1004.0 hPa WSW 20.1 km/h 27.8 km/h 40% 0.0 mm CLR
08:19 19.6 °C 5.3 °C 1004.4 hPa WSW 22.0 km/h 24.1 km/h 39% 0.0 mm CLR
08:24 19.7 °C 5.3 °C 1004.4 hPa West 22.0 km/h 29.6 km/h 39% 0.0 mm CLR
08:29 19.7 °C 5.3 °C 1004.4 hPa WSW 17.2 km/h 29.6 km/h 39% 0.0 mm CLR
08:34 19.7 °C 5.3 °C 1004.6 hPa West 17.2 km/h 22.2 km/h 39% 0.0 mm CLR
08:39 19.8 °C 5.4 °C 1004.6 hPa West 17.2 km/h 24.1 km/h 39% 0.0 mm CLR
08:44 19.8 °C 5.4 °C 1004.6 hPa WSW 17.2 km/h 22.0 km/h 39% 0.0 mm CLR
08:49 19.8 °C 5.4 °C 1004.7 hPa WSW 14.8 km/h 27.8 km/h 39% 0.0 mm CLR
08:54 19.8 °C 5.4 °C 1004.7 hPa West 14.8 km/h 27.4 km/h 39% 0.0 mm CLR
08:59 19.7 °C 5.3 °C 1004.7 hPa NW 19.0 km/h 29.6 km/h 39% 0.0 mm CLR
09:04 19.7 °C 5.7 °C 1004.7 hPa WSW 19.0 km/h 25.9 km/h 40% 0.0 mm CLR
09:09 19.8 °C 5.8 °C 1004.7 hPa West 18.0 km/h 29.6 km/h 40% 0.0 mm CLR
09:14 19.7 °C 5.3 °C 1004.7 hPa West 18.0 km/h 33.3 km/h 39% 0.0 mm CLR
09:19 19.6 °C 5.6 °C 1004.8 hPa NW 21.7 km/h 33.5 km/h 40% 0.0 mm CLR
09:24 19.6 °C 5.6 °C 1004.8 hPa West 21.7 km/h 20.4 km/h 40% 0.0 mm CLR
09:29 19.9 °C 5.9 °C 1004.8 hPa NW 16.1 km/h 22.2 km/h 40% 0.0 mm CLR
09:34 19.9 °C 5.5 °C 1004.9 hPa West 16.1 km/h 31.5 km/h 39% 0.0 mm CLR
09:39 20.1 °C 5.7 °C 1004.9 hPa WSW 15.6 km/h 20.4 km/h 39% 0.0 mm CLR
09:44 20.2 °C 5.8 °C 1004.9 hPa WNW 15.6 km/h 31.7 km/h 39% 0.0 mm CLR
09:49 20.2 °C 5.8 °C 1005.1 hPa NW 15.6 km/h 22.5 km/h 39% 0.0 mm CLR
09:54 20.1 °C 5.3 °C 1005.1 hPa NW 15.6 km/h 25.9 km/h 38% 0.0 mm CLR
09:59 20.2 °C 5.4 °C 1005.1 hPa WNW 17.2 km/h 22.2 km/h 38% 0.0 mm CLR
10:04 20.2 °C 5.4 °C 1005.3 hPa West 17.2 km/h 31.5 km/h 38% 0.0 mm CLR
10:09 20.4 °C 5.2 °C 1005.3 hPa West 16.4 km/h 34.6 km/h 37% 0.0 mm CLR
10:14 20.5 °C 5.3 °C 1005.3 hPa West 16.4 km/h 18.5 km/h 37% 0.0 mm CLR
10:19 20.6 °C 5.0 °C 1005.3 hPa West 16.4 km/h 29.6 km/h 36% 0.0 mm CLR
10:24 20.7 °C 5.1 °C 1005.3 hPa WNW 16.4 km/h 29.6 km/h 36% 0.0 mm CLR
10:29 20.7 °C 5.1 °C 1005.3 hPa West 16.1 km/h 25.9 km/h 36% 0.0 mm CLR
10:34 20.9 °C 5.3 °C 1005.3 hPa WSW 16.1 km/h 24.1 km/h 36% 0.0 mm CLR
10:39 21.2 °C 5.1 °C 1005.3 hPa WNW 14.8 km/h 20.1 km/h 35% 0.0 mm CLR
10:44 21.1 °C 5.1 °C 1005.3 hPa WSW 14.8 km/h 29.1 km/h 35% 0.0 mm CLR
10:49 21.4 °C 5.3 °C 1005.3 hPa WNW 14.8 km/h 18.5 km/h 35% 0.0 mm CLR
10:54 21.3 °C 4.8 °C 1005.3 hPa NW 14.8 km/h 24.1 km/h 34% 0.0 mm CLR
10:59 21.1 °C 4.6 °C 1005.3 hPa SW 14.8 km/h 22.2 km/h 34% 0.0 mm CLR
11:04 21.3 °C 5.2 °C 1005.2 hPa West 14.8 km/h 22.5 km/h 35% 0.0 mm CLR
11:09 21.3 °C 4.4 °C 1005.2 hPa West 15.6 km/h 27.8 km/h 33% 0.0 mm CLR
11:14 21.4 °C 4.4 °C 1005.2 hPa WNW 15.6 km/h 22.5 km/h 33% 0.0 mm CLR
11:19 21.4 °C 4.4 °C 1005.3 hPa NW 19.8 km/h 33.3 km/h 33% 0.0 mm CLR
11:24 21.6 °C 4.6 °C 1005.3 hPa West 19.8 km/h 27.4 km/h 33% 0.0 mm CLR
11:29 21.6 °C 4.2 °C 1005.3 hPa WNW 18.0 km/h 22.2 km/h 32% 0.0 mm CLR
11:34 21.8 °C 3.9 °C 1005.3 hPa WSW 18.0 km/h 35.2 km/h 31% 0.0 mm CLR
11:39 21.9 °C 4.4 °C 1005.3 hPa WNW 18.0 km/h 22.2 km/h 32% 0.0 mm CLR
11:44 22.1 °C 4.2 °C 1005.3 hPa West 18.0 km/h 33.3 km/h 31% 0.0 mm CLR
11:49 22.3 °C 4.3 °C 1005.2 hPa West 17.2 km/h 25.6 km/h 31% 0.0 mm CLR
11:54 22.4 °C 3.9 °C 1005.2 hPa West 17.2 km/h 29.6 km/h 30% 0.0 mm CLR
11:59 22.5 °C 4.1 °C 1005.2 hPa West 19.0 km/h 35.2 km/h 30% 0.0 mm CLR
12:04 22.7 °C 3.7 °C 1005.4 hPa NW 19.0 km/h 29.6 km/h 29% 0.0 mm CLR
12:09 22.6 °C 3.2 °C 1005.4 hPa West 18.0 km/h 29.6 km/h 28% 0.0 mm CLR
12:14 22.7 °C 2.7 °C 1005.4 hPa WSW 18.0 km/h 31.5 km/h 27% 0.0 mm CLR
12:19 22.7 °C 3.2 °C 1005.6 hPa West 19.0 km/h 28.2 km/h 28% 0.0 mm CLR
12:24 22.7 °C 2.7 °C 1005.6 hPa West 19.0 km/h 33.3 km/h 27% 0.0 mm CLR
12:29 22.9 °C 3.4 °C 1005.6 hPa West 19.8 km/h 24.1 km/h 28% 0.0 mm CLR
12:34 23.1 °C 3.1 °C 1005.6 hPa WNW 19.8 km/h 25.1 km/h 27% 0.0 mm CLR
12:39 23.0 °C 3.0 °C 1005.6 hPa West 18.3 km/h 18.0 km/h 27% 0.0 mm CLR
12:44 23.2 °C 3.2 °C 1005.6 hPa WSW 18.3 km/h 23.7 km/h 27% 0.0 mm CLR
12:49 23.3 °C 2.2 °C 1005.5 hPa WNW 19.0 km/h 40.7 km/h 25% 0.0 mm CLR
12:54 23.2 °C 2.1 °C 1005.5 hPa West 19.0 km/h 35.2 km/h 25% 0.0 mm CLR
12:59 23.6 °C 2.4 °C 1005.5 hPa WNW 25.1 km/h 29.1 km/h 25% 0.0 mm CLR
13:04 23.7 °C 1.9 °C 1005.5 hPa West 25.1 km/h 38.9 km/h 24% 0.0 mm CLR
13:09 23.7 °C 1.9 °C 1005.5 hPa West 23.3 km/h 40.7 km/h 24% 0.0 mm CLR
13:14 23.8 °C 1.4 °C 1005.5 hPa NNW 23.3 km/h 33.3 km/h 23% 0.0 mm CLR
13:19 24.1 °C 1.7 °C 1005.7 hPa WNW 24.5 km/h 31.7 km/h 23% 0.0 mm CLR
13:24 24.0 °C 0.9 °C 1005.7 hPa West 24.5 km/h 33.3 km/h 22% 0.0 mm CLR
13:29 24.2 °C 2.3 °C 1005.7 hPa WNW 22.5 km/h 28.2 km/h 24% 0.0 mm CLR
13:34 24.2 °C 1.7 °C 1005.9 hPa WSW 22.5 km/h 33.3 km/h 23% 0.0 mm CLR
13:39 24.1 °C 2.3 °C 1005.9 hPa NW 20.1 km/h 37.0 km/h 24% 0.0 mm CLR
13:44 24.2 °C 1.7 °C 1005.9 hPa WNW 20.1 km/h 40.7 km/h 23% 0.0 mm CLR
13:49 24.1 °C 1.7 °C 1005.7 hPa West 23.3 km/h 33.3 km/h 23% 0.0 mm CLR
13:54 24.3 °C 1.8 °C 1005.7 hPa WNW 23.3 km/h 37.0 km/h 23% 0.0 mm CLR
13:59 24.4 °C 1.9 °C 1005.7 hPa NW 21.7 km/h 27.8 km/h 23% 0.0 mm CLR
14:04 24.6 °C 2.1 °C 1005.1 hPa WNW 21.7 km/h 34.3 km/h 23% 0.0 mm CLR
14:09 24.2 °C 1.7 °C 1005.1 hPa WNW 21.7 km/h 31.5 km/h 23% 0.0 mm CLR
14:14 24.4 °C 1.9 °C 1005.1 hPa WNW 21.7 km/h 24.1 km/h 23% 0.0 mm CLR
14:19 24.4 °C 1.9 °C 1005.2 hPa NW 18.0 km/h 25.9 km/h 23% 0.0 mm CLR
14:24 24.1 °C 2.3 °C 1005.2 hPa NW 18.0 km/h 35.2 km/h 24% 0.0 mm CLR
14:29 24.1 °C 2.3 °C 1005.2 hPa WNW 19.0 km/h 22.2 km/h 24% 0.0 mm CLR
14:34 24.0 °C 2.2 °C 1005.3 hPa NW 19.0 km/h 29.6 km/h 24% 0.0 mm CLR
14:39 24.2 °C 2.3 °C 1005.3 hPa WNW 19.0 km/h 18.0 km/h 24% 0.0 mm CLR
14:44 24.2 °C 2.9 °C 1005.3 hPa WNW 19.0 km/h 30.6 km/h 25% 0.0 mm CLR
14:49 24.2 °C 2.3 °C 1005.4 hPa WNW 18.3 km/h 33.3 km/h 24% 0.0 mm CLR
14:54 24.3 °C 2.4 °C 1005.4 hPa WNW 18.3 km/h 42.6 km/h 24% 0.0 mm CLR
14:59 24.4 °C 3.1 °C 1005.4 hPa NW 21.7 km/h 29.8 km/h 25% 0.0 mm CLR
15:04 24.4 °C 2.5 °C 1005.3 hPa NW 21.7 km/h 29.6 km/h 24% 0.0 mm CLR
15:09 24.3 °C 2.4 °C 1005.3 hPa West 22.5 km/h 33.3 km/h 24% 0.0 mm CLR
15:14 24.7 °C 2.8 °C 1005.3 hPa WNW 22.5 km/h 42.6 km/h 24% 0.0 mm CLR
15:19 24.7 °C 2.8 °C 1005.1 hPa WNW 25.1 km/h 42.6 km/h 24% 0.0 mm CLR
15:24 24.8 °C 3.4 °C 1005.1 hPa West 25.1 km/h 47.8 km/h 25% 0.0 mm CLR
15:29 24.7 °C 3.3 °C 1005.1 hPa NW 26.2 km/h 38.9 km/h 25% 0.0 mm CLR
15:34 24.7 °C 3.3 °C 1005.2 hPa WNW 26.2 km/h 37.0 km/h 25% 0.0 mm CLR
15:39 24.8 °C 3.4 °C 1005.2 hPa NW 21.7 km/h 29.6 km/h 25% 0.0 mm CLR
15:44 25.0 °C 3.0 °C 1005.2 hPa WNW 21.7 km/h 33.3 km/h 24% 0.0 mm CLR
15:49 24.8 °C 3.4 °C 1005.3 hPa West 22.5 km/h 37.0 km/h 25% 0.0 mm CLR
15:54 24.4 °C 3.1 °C 1005.3 hPa NW 22.5 km/h 33.3 km/h 25% 0.0 mm CLR
15:59 24.5 °C 3.7 °C 1005.3 hPa WNW 23.3 km/h 33.3 km/h 26% 0.0 mm CLR
16:04 24.6 °C 3.8 °C 1005.6 hPa SW 23.3 km/h 35.2 km/h 26% 0.0 mm CLR
16:09 24.8 °C 3.4 °C 1005.6 hPa West 18.3 km/h 37.0 km/h 25% 0.0 mm CLR
16:14 24.8 °C 3.4 °C 1005.6 hPa WSW 18.3 km/h 22.2 km/h 25% 0.0 mm CLR
16:19 24.8 °C 3.4 °C 1005.5 hPa NW 17.2 km/h 35.2 km/h 25% 0.0 mm CLR
16:24 24.7 °C 3.3 °C 1005.5 hPa NW 17.2 km/h 24.1 km/h 25% 0.0 mm CLR
16:29 24.5 °C 3.2 °C 1005.5 hPa WNW 18.0 km/h 18.5 km/h 25% 0.0 mm CLR
16:34 24.6 °C 3.3 °C 1005.1 hPa NW 18.0 km/h 31.5 km/h 25% 0.0 mm CLR
16:39 24.7 °C 3.9 °C 1005.1 hPa West 15.6 km/h 29.6 km/h 26% 0.0 mm CLR
16:44 24.6 °C 3.8 °C 1005.1 hPa West 15.6 km/h 27.8 km/h 26% 0.0 mm CLR
16:49 24.5 °C 3.2 °C 1005.3 hPa NW 19.0 km/h 16.7 km/h 25% 0.0 mm CLR
16:54 24.4 °C 3.1 °C 1005.3 hPa WSW 19.0 km/h 20.4 km/h 25% 0.0 mm CLR
16:59 24.5 °C 3.7 °C 1005.3 hPa West 11.1 km/h 11.1 km/h 26% 0.0 mm CLR
17:04 24.7 °C 3.9 °C 1005.2 hPa WNW 11.1 km/h 16.7 km/h 26% 0.0 mm CLR
17:09 24.8 °C 4.0 °C 1005.2 hPa WNW 10.3 km/h 25.6 km/h 26% 0.0 mm CLR
17:14 24.7 °C 3.3 °C 1005.2 hPa WNW 10.3 km/h 25.9 km/h 25% 0.0 mm CLR
17:19 24.5 °C 3.7 °C 1005.1 hPa NW 16.4 km/h 22.2 km/h 26% 0.0 mm CLR
17:24 24.4 °C 3.7 °C 1005.1 hPa NW 16.4 km/h 27.8 km/h 26% 0.0 mm CLR
17:29 24.4 °C 3.7 °C 1005.1 hPa NNW 14.8 km/h 25.9 km/h 26% 0.0 mm CLR
17:34 24.4 °C 3.1 °C 1005.0 hPa West 14.8 km/h 29.6 km/h 25% 0.0 mm CLR
17:39 24.4 °C 3.1 °C 1005.0 hPa WNW 16.4 km/h 27.8 km/h 25% 0.0 mm CLR
17:44 24.4 °C 3.1 °C 1005.0 hPa WNW 16.4 km/h 20.4 km/h 25% 0.0 mm CLR
17:49 24.6 °C 3.3 °C 1005.0 hPa West 14.8 km/h 22.2 km/h 25% 0.0 mm CLR
17:54 24.6 °C 3.3 °C 1005.0 hPa WSW 14.8 km/h 20.4 km/h 25% 0.0 mm CLR
17:59 24.6 °C 3.3 °C 1005.0 hPa WNW 14.0 km/h 22.2 km/h 25% 0.0 mm CLR
18:04 24.7 °C 3.9 °C 1005.0 hPa West 14.0 km/h 22.2 km/h 26% 0.0 mm CLR
18:09 24.7 °C 3.9 °C 1005.0 hPa NW 13.0 km/h 18.5 km/h 26% 0.0 mm CLR
18:14 24.6 °C 3.8 °C 1005.0 hPa WNW 13.0 km/h 29.6 km/h 26% 0.0 mm CLR
18:19 24.4 °C 3.7 °C 1005.2 hPa WNW 16.4 km/h 22.2 km/h 26% 0.0 mm CLR
18:24 24.4 °C 4.2 °C 1005.2 hPa NW 16.4 km/h 24.1 km/h 27% 0.0 mm CLR
18:29 24.4 °C 3.7 °C 1005.2 hPa NW 16.4 km/h 24.1 km/h 26% 0.0 mm CLR
18:34 24.3 °C 3.6 °C 1005.1 hPa NW 16.4 km/h 24.1 km/h 26% 0.0 mm CLR
18:39 24.7 °C 3.9 °C 1005.1 hPa NW 18.0 km/h 27.8 km/h 26% 0.0 mm CLR
18:44 24.8 °C 4.0 °C 1005.1 hPa WNW 18.0 km/h 27.8 km/h 26% 0.0 mm CLR
18:49 24.7 °C 3.9 °C 1005.1 hPa NNE 16.4 km/h 18.5 km/h 26% 0.0 mm CLR
18:54 24.7 °C 3.9 °C 1005.1 hPa WNW 16.4 km/h 27.8 km/h 26% 0.0 mm CLR
18:59 24.6 °C 3.3 °C 1005.1 hPa WNW 16.1 km/h 27.8 km/h 25% 0.0 mm CLR
19:04 24.6 °C 3.8 °C 1005.1 hPa WNW 16.1 km/h 21.7 km/h 26% 0.0 mm CLR
19:09 24.6 °C 3.8 °C 1005.1 hPa NW 16.1 km/h 29.6 km/h 26% 0.0 mm CLR
19:14 24.7 °C 3.9 °C 1005.1 hPa NNW 16.1 km/h 16.7 km/h 26% 0.0 mm CLR
19:19 24.8 °C 3.4 °C 1005.1 hPa WNW 14.0 km/h 29.6 km/h 25% 0.0 mm CLR
19:24 24.8 °C 4.0 °C 1005.1 hPa NW 14.0 km/h 21.7 km/h 26% 0.0 mm CLR
19:29 24.9 °C 3.5 °C 1005.1 hPa NNW 14.8 km/h 24.1 km/h 25% 0.0 mm CLR
19:34 24.9 °C 3.5 °C 1005.2 hPa ENE 14.8 km/h 16.4 km/h 25% 0.0 mm CLR
19:39 24.9 °C 3.5 °C 1005.2 hPa WNW 15.6 km/h 24.5 km/h 25% 0.0 mm CLR
19:44 24.8 °C 3.4 °C 1005.2 hPa WNW 15.6 km/h 24.5 km/h 25% 0.0 mm CLR
19:49 24.8 °C 3.4 °C 1005.0 hPa WNW 16.1 km/h 13.7 km/h 25% 0.0 mm CLR
19:54 24.8 °C 2.8 °C 1005.0 hPa WNW 16.1 km/h 25.9 km/h 24% 0.0 mm CLR
19:59 24.8 °C 2.8 °C 1005.0 hPa WNW 14.8 km/h 20.4 km/h 24% 0.0 mm CLR
20:04 24.6 °C 2.7 °C 1005.0 hPa NW 14.8 km/h 25.9 km/h 24% 0.0 mm CLR
20:09 24.4 °C 3.1 °C 1005.0 hPa WNW 16.1 km/h 24.1 km/h 25% 0.0 mm CLR
20:14 24.3 °C 3.6 °C 1005.0 hPa NW 16.1 km/h 24.1 km/h 26% 0.0 mm CLR
20:19 24.0 °C 3.3 °C 1005.4 hPa NW 14.8 km/h 25.6 km/h 26% 0.0 mm CLR
20:24 24.0 °C 3.8 °C 1005.4 hPa NW 14.8 km/h 24.1 km/h 27% 0.0 mm CLR
20:29 23.9 °C 3.8 °C 1005.4 hPa NW 15.6 km/h 13.0 km/h 27% 0.0 mm CLR
20:34 23.8 °C 4.2 °C 1005.7 hPa NNE 15.6 km/h 11.1 km/h 28% 0.0 mm CLR
20:39 23.6 °C 4.0 °C 1005.7 hPa NW 10.0 km/h 18.5 km/h 28% 0.0 mm CLR
20:44 23.4 °C 3.8 °C 1005.7 hPa NW 10.0 km/h 20.4 km/h 28% 0.0 mm CLR
20:49 23.4 °C 3.8 °C 1006.0 hPa NW 11.9 km/h 14.8 km/h 28% 0.0 mm CLR
20:54 23.3 °C 3.8 °C 1006.0 hPa WNW 11.9 km/h 13.0 km/h 28% 0.0 mm CLR
20:59 23.2 °C 3.7 °C 1006.0 hPa WNW 11.1 km/h 13.0 km/h 28% 0.0 mm CLR
21:04 23.2 °C 3.7 °C 1006.2 hPa NW 11.1 km/h 14.8 km/h 28% 0.0 mm CLR
21:09 23.0 °C 4.0 °C 1006.2 hPa NW 8.7 km/h 13.0 km/h 29% 0.0 mm CLR
21:14 22.9 °C 3.9 °C 1006.2 hPa NNW 8.7 km/h 13.7 km/h 29% 0.0 mm CLR
21:19 22.8 °C 3.8 °C 1006.3 hPa NNW 8.4 km/h 8.4 km/h 29% 0.0 mm CLR
21:24 22.7 °C 3.7 °C 1006.3 hPa NW 8.4 km/h 13.0 km/h 29% 0.0 mm CLR
21:29 22.6 °C 3.7 °C 1006.3 hPa NW 6.9 km/h 7.4 km/h 29% 0.0 mm CLR
21:34 22.6 °C 3.7 °C 1006.4 hPa NW 6.9 km/h 8.7 km/h 29% 0.0 mm CLR
21:39 22.4 °C 3.5 °C 1006.4 hPa NW 5.8 km/h 9.3 km/h 29% 0.0 mm CLR
21:44 22.4 °C 3.5 °C 1006.4 hPa NW 5.8 km/h 9.3 km/h 29% 0.0 mm CLR
21:49 22.2 °C 3.8 °C 1006.6 hPa NW 5.8 km/h 7.6 km/h 30% 0.0 mm CLR
21:54 22.1 °C 3.7 °C 1006.6 hPa NNW 5.8 km/h 7.4 km/h 30% 0.0 mm CLR
21:59 22.0 °C 3.6 °C 1006.6 hPa NNW 5.0 km/h 7.4 km/h 30% 0.0 mm CLR
22:04 21.9 °C 3.6 °C 1006.8 hPa NW 5.0 km/h 7.4 km/h 30% 0.0 mm CLR
22:09 21.7 °C 3.8 °C 1006.8 hPa North 5.0 km/h 9.3 km/h 31% 0.0 mm CLR
22:14 21.6 °C 3.7 °C 1006.8 hPa North 5.0 km/h 10.3 km/h 31% 0.0 mm CLR
22:19 21.6 °C 3.7 °C 1007.0 hPa NNW 6.9 km/h 7.4 km/h 31% 0.0 mm CLR
22:24 21.4 °C 3.6 °C 1007.0 hPa NNW 6.9 km/h 7.4 km/h 31% 0.0 mm CLR
22:29 21.4 °C 3.6 °C 1007.0 hPa NW 5.0 km/h 7.4 km/h 31% 0.0 mm CLR
22:34 21.3 °C 3.9 °C 1007.2 hPa North 5.0 km/h 7.4 km/h 32% 0.0 mm CLR
22:39 21.2 °C 3.8 °C 1007.2 hPa NW 4.7 km/h 3.9 km/h 32% 0.0 mm CLR
22:44 21.2 °C 3.8 °C 1007.2 hPa NW 4.7 km/h 3.7 km/h 32% 0.0 mm CLR
22:49 21.1 °C 3.3 °C 1007.4 hPa NNW 2.3 km/h 5.6 km/h 31% 0.0 mm CLR
22:54 21.0 °C 3.2 °C 1007.4 hPa NNW 2.3 km/h 6.4 km/h 31% 0.0 mm CLR
22:59 21.0 °C 3.7 °C 1007.4 hPa WNW 3.2 km/h 7.4 km/h 32% 0.0 mm CLR
23:04 21.0 °C 3.7 °C 1007.7 hPa NW 3.2 km/h 7.4 km/h 32% 0.0 mm CLR
23:09 20.9 °C 3.6 °C 1007.7 hPa NNW 4.7 km/h 7.4 km/h 32% 0.0 mm CLR
23:14 20.9 °C 3.6 °C 1007.7 hPa NW 4.7 km/h 9.3 km/h 32% 0.0 mm CLR
23:19 20.9 °C 3.6 °C 1007.7 hPa NNW 3.9 km/h 7.4 km/h 32% 0.0 mm CLR
23:24 20.9 °C 3.6 °C 1007.7 hPa North 3.9 km/h 3.9 km/h 32% 0.0 mm CLR
23:29 20.8 °C 4.8 °C 1007.7 hPa SE 3.2 km/h 7.4 km/h 35% 0.0 mm CLR
23:34 20.7 °C 4.7 °C 1007.9 hPa SE 3.2 km/h 7.4 km/h 35% 0.0 mm CLR
23:39 20.6 °C 4.6 °C 1007.9 hPa SSE 4.7 km/h 7.4 km/h 35% 0.0 mm CLR
23:44 20.4 °C 4.8 °C 1007.9 hPa SSE 4.7 km/h 7.4 km/h 36% 0.0 mm CLR
23:49 20.4 °C 4.8 °C 1008.0 hPa SE 4.7 km/h 7.4 km/h 36% 0.0 mm CLR
23:54 20.4 °C 4.8 °C 1008.0 hPa SE 4.7 km/h 7.4 km/h 36% 0.0 mm CLR
23:59 20.5 °C 4.1 °C 1008.0 hPa ENE 3.9 km/h 5.6 km/h 34% 0.0 mm CLR
Murcia-Puente Tocinos, España
Compliments of Weather Underground - 2.75 mb

La estación de MeteoMurcia.com, publica sus datos en los siguientes proyectos:

Weather Underground PWS IMURCIAP2 Meteoclimatic www.awekas.at

W3Counter
Web Analytics